Time;durP1;ratioP1;P1;durP2;ratioP2;P2;SDS_P1;SDS_P2;PMS_P1;PMS_P2;Temp;Humidity;BMP_temperature;BMP_pressure;BME280_temperature;BME280_humidity;BME280_pressure;Samples;Min_cycle;Max_cycle;Signal;HPM_P1;HPM_P2
2022/06/25 00:05:28;;;;;;;15.70;12.20;;;18.40;99.90;;;;;;4969206;28;20041;-70
2022/06/25 00:07:58;;;;;;;14.00;12.60;;;18.30;99.90;;;;;;4932964;29;20488;-70
2022/06/25 00:10:25;;;;;;;15.18;13.35;;;18.30;99.90;;;;;;4934453;29;20404;-70
2022/06/25 00:12:52;;;;;;;17.85;13.90;;;18.30;99.90;;;;;;4935138;29;20089;-70
2022/06/25 00:15:18;;;;;;;16.83;13.73;;;18.30;99.90;;;;;;4918805;28;20401;-70
2022/06/25 00:17:44;;;;;;;16.55;13.27;;;18.30;99.90;;;;;;4942100;28;20057;-70
2022/06/25 00:30:54;;;;;;;15.20;12.43;;;18.20;99.90;;;;;;4992257;28;20053;-71
2022/06/25 00:33:20;;;;;;;16.90;13.60;;;18.10;99.90;;;;;;4989772;28;20039;-71
2022/06/25 00:35:46;;;;;;;15.90;13.50;;;18.10;99.90;;;;;;4984102;28;20039;-71
2022/06/25 00:38:12;;;;;;;17.83;14.35;;;18.10;99.90;;;;;;4979039;28;20479;-70
2022/06/25 00:48:07;;;;;;;16.58;14.90;;;17.90;99.90;;;;;;4960519;28;20049;-69
2022/06/25 00:50:33;;;;;;;17.42;15.63;;;17.80;99.90;;;;;;4970300;28;20039;-69
2022/06/25 00:53:04;;;;;;;17.08;15.20;;;17.80;99.90;;;;;;4978204;28;20142;-69
2022/06/25 00:55:31;;;;;;;17.15;15.23;;;17.80;99.90;;;;;;4973038;28;20046;-69
2022/06/25 00:58:00;;;;;;;19.92;15.85;;;17.70;99.90;;;;;;4970887;28;20034;-69
2022/06/25 01:00:26;;;;;;;20.02;17.13;;;17.60;99.90;;;;;;4972829;28;20101;-69
2022/06/25 01:02:52;;;;;;;18.75;16.75;;;17.70;99.90;;;;;;4976217;28;20042;-69
2022/06/25 01:05:18;;;;;;;19.15;17.15;;;17.70;99.90;;;;;;4976755;28;20061;-69
2022/06/25 01:07:46;;;;;;;19.33;17.38;;;17.70;99.90;;;;;;4954611;28;20130;-69
2022/06/25 01:23:53;;;;;;;19.35;16.73;;;17.50;99.90;;;;;;5200615;23;20099;-71
2022/06/25 01:28:54;;;;;;;20.17;17.85;;;17.50;99.90;;;;;;5429326;23;20075;-70
2022/06/25 01:31:19;;;;;;;20.23;17.73;;;17.50;99.90;;;;;;4991335;28;20057;-70
2022/06/25 01:33:45;;;;;;;20.75;18.08;;;17.50;99.90;;;;;;4993912;28;20088;-69
2022/06/25 01:38:46;;;;;;;20.50;18.27;;;17.50;99.90;;;;;;5292703;23;20065;-69
2022/06/25 01:41:13;;;;;;;20.00;17.80;;;17.40;99.90;;;;;;4970793;28;20046;-70
2022/06/25 01:43:39;;;;;;;20.52;17.05;;;17.40;99.90;;;;;;4967975;28;20046;-70
2022/06/25 01:46:08;;;;;;;22.75;17.63;;;17.40;99.90;;;;;;4975440;28;20093;-70
2022/06/25 01:48:34;;;;;;;20.52;17.35;;;17.30;99.90;;;;;;4970003;28;20044;-70
2022/06/25 01:53:31;;;;;;;19.47;17.40;;;17.30;99.90;;;;;;4991430;28;20053;-70
2022/06/25 01:55:57;;;;;;;17.80;16.00;;;17.30;99.90;;;;;;4969960;28;20038;-70
2022/06/25 02:01:10;;;;;;;17.77;15.63;;;17.20;99.90;;;;;;5584424;23;20124;-70
2022/06/25 02:03:36;;;;;;;21.13;16.17;;;17.20;99.90;;;;;;4950400;28;20089;-69
2022/06/25 02:06:02;;;;;;;18.38;16.42;;;17.20;99.90;;;;;;4961644;28;20069;-71
2022/06/25 02:08:32;;;;;;;18.75;16.85;;;17.20;99.90;;;;;;4975005;28;20065;-71
2022/06/25 02:10:59;;;;;;;20.38;16.15;;;17.20;99.90;;;;;;4991156;28;20406;-71
2022/06/25 02:13:26;;;;;;;19.90;16.13;;;17.20;99.90;;;;;;4993075;28;20038;-71
2022/06/25 02:15:53;;;;;;;18.05;16.20;;;17.20;99.90;;;;;;4961382;28;20034;-71
2022/06/25 02:18:19;;;;;;;18.58;16.45;;;17.10;99.90;;;;;;4986889;28;20042;-71
2022/06/25 02:20:45;;;;;;;18.23;16.33;;;17.10;99.90;;;;;;4984316;28;20426;-71
2022/06/25 02:25:46;;;;;;;23.70;17.25;;;17.10;99.90;;;;;;6027082;23;20032;-71
2022/06/25 02:28:13;;;;;;;21.85;17.70;;;17.10;99.90;;;;;;4959707;28;20042;-71
2022/06/25 02:35:43;;;;;;;22.80;17.63;;;17.10;99.90;;;;;;4972812;28;20054;-69
2022/06/25 02:38:10;;;;;;;20.52;17.27;;;17.10;99.90;;;;;;4953795;28;20065;-69
2022/06/25 02:40:36;;;;;;;20.52;17.60;;;17.10;99.90;;;;;;4959495;28;20035;-69
2022/06/25 02:43:01;;;;;;;21.40;17.58;;;17.00;99.90;;;;;;4936644;28;20047;-69
2022/06/25 02:45:28;;;;;;;19.70;17.60;;;17.00;99.90;;;;;;4936586;28;20074;-69
2022/06/25 02:47:56;;;;;;;22.75;17.60;;;17.10;99.90;;;;;;4943284;28;20039;-70
2022/06/25 02:50:22;;;;;;;22.13;17.55;;;17.00;99.90;;;;;;4957058;28;20105;-69
2022/06/25 02:52:48;;;;;;;21.90;17.40;;;17.00;99.90;;;;;;4945828;28;20380;-70
2022/06/25 02:55:13;;;;;;;22.92;17.70;;;17.00;99.90;;;;;;4948424;28;20546;-69
2022/06/25 03:15:55;;;;;;;21.10;17.77;;;17.00;99.90;;;;;;5222607;22;20108;-70
2022/06/25 03:18:22;;;;;;;19.38;17.25;;;17.10;99.90;;;;;;4991153;28;20046;-70
2022/06/25 03:20:50;;;;;;;20.35;17.73;;;17.10;99.90;;;;;;4984455;28;20406;-70
2022/06/25 03:44:38;;;;;;;18.30;15.68;;;17.00;99.90;;;;;;5750193;23;20327;-69
2022/06/25 03:47:04;;;;;;;20.08;15.88;;;17.00;99.90;;;;;;4993904;28;20438;-69
2022/06/25 03:49:29;;;;;;;20.42;16.30;;;17.00;99.90;;;;;;4992936;28;20618;-68
2022/06/25 03:51:55;;;;;;;17.20;15.35;;;17.00;99.90;;;;;;4960490;28;20050;-69
2022/06/25 04:02:05;;;;;;;17.77;14.95;;;17.20;99.90;;;;;;5316112;23;20108;-69
2022/06/25 04:04:30;;;;;;;17.98;15.68;;;17.20;99.90;;;;;;5006872;28;20042;-69
2022/06/25 04:06:56;;;;;;;17.15;15.18;;;17.20;99.90;;;;;;4998230;28;20053;-69
2022/06/25 04:09:22;;;;;;;18.17;15.40;;;17.20;99.90;;;;;;5002149;28;20041;-69
2022/06/25 04:11:48;;;;;;;17.38;15.45;;;17.20;99.90;;;;;;4998057;28;20065;-70
2022/06/25 04:16:49;;;;;;;18.40;14.82;;;17.20;99.90;;;;;;5670905;23;20111;-69
2022/06/25 04:19:15;;;;;;;18.23;14.40;;;17.20;99.90;;;;;;4940752;28;20035;-70
2022/06/25 04:26:53;;;;;;;17.42;13.90;;;17.30;99.90;;;;;;5369825;23;20054;-69
2022/06/25 04:29:18;;;;;;;18.38;14.52;;;17.40;99.90;;;;;;4981501;28;20042;-69
2022/06/25 04:31:44;;;;;;;15.90;13.80;;;17.40;99.90;;;;;;4997618;28;20046;-69
2022/06/25 04:34:10;;;;;;;17.73;13.50;;;17.50;99.90;;;;;;4984731;28;20402;-70
2022/06/25 04:36:37;;;;;;;17.23;13.77;;;17.50;99.90;;;;;;4979536;28;20444;-70
2022/06/25 04:39:02;;;;;;;17.77;14.35;;;17.50;99.90;;;;;;5007511;28;20045;-70
2022/06/25 04:41:28;;;;;;;17.77;13.32;;;17.50;99.90;;;;;;4981788;28;20105;-70
2022/06/25 04:43:53;;;;;;;14.43;13.02;;;17.60;99.90;;;;;;4981073;28;20034;-70
2022/06/25 04:46:19;;;;;;;16.00;13.27;;;17.60;99.90;;;;;;5008813;28;20048;-70
2022/06/25 04:48:45;;;;;;;14.25;12.52;;;17.60;99.90;;;;;;4986386;28;20121;-70
2022/06/25 04:51:10;;;;;;;17.60;13.38;;;17.70;99.90;;;;;;5000052;28;20041;-69
2022/06/25 04:53:55;;;;;;;16.30;12.48;;;17.70;99.90;;;;;;5006185;28;20034;-69
2022/06/25 04:56:25;;;;;;;16.40;12.55;;;17.70;99.90;;;;;;5005990;28;20393;-69
2022/06/25 04:58:51;;;;;;;15.63;12.40;;;17.70;99.90;;;;;;4982561;28;20048;-69
2022/06/25 05:01:16;;;;;;;14.00;12.50;;;17.80;99.90;;;;;;4985740;28;20042;-69
2022/06/25 05:03:42;;;;;;;13.45;12.00;;;17.90;99.90;;;;;;5004434;28;20052;-69
2022/06/25 05:06:08;;;;;;;14.65;12.30;;;17.80;99.90;;;;;;4989923;28;20045;-69
2022/06/25 05:08:34;;;;;;;13.25;11.77;;;17.90;99.90;;;;;;4981272;28;20053;-69
2022/06/25 05:11:00;;;;;;;15.25;11.90;;;17.90;99.90;;;;;;4987697;28;20417;-69
2022/06/25 05:13:26;;;;;;;13.27;11.80;;;18.00;99.90;;;;;;4985160;28;20519;-69
2022/06/25 05:15:52;;;;;;;14.43;11.70;;;18.00;99.90;;;;;;4987444;28;20490;-69
2022/06/25 05:18:18;;;;;;;14.52;11.63;;;18.00;99.90;;;;;;4996829;28;20031;-69
2022/06/25 05:20:44;;;;;;;13.15;10.95;;;18.10;99.90;;;;;;5006084;28;20038;-69
2022/06/25 05:23:12;;;;;;;12.52;11.05;;;18.10;99.90;;;;;;5003787;28;20684;-69
2022/06/25 05:25:38;;;;;;;16.50;11.30;;;18.20;99.90;;;;;;4988450;28;20050;-70
2022/06/25 05:28:04;;;;;;;13.88;10.68;;;18.20;99.90;;;;;;4992281;28;20535;-70
2022/06/25 05:30:31;;;;;;;12.43;10.50;;;18.30;99.90;;;;;;4980323;28;20046;-70
2022/06/25 05:32:56;;;;;;;17.45;10.93;;;18.30;99.90;;;;;;4988603;28;20073;-70
2022/06/25 05:35:22;;;;;;;12.70;10.75;;;18.40;99.90;;;;;;4974355;28;20128;-70
2022/06/25 05:37:48;;;;;;;14.13;10.35;;;18.50;99.90;;;;;;4990788;28;20049;-69
2022/06/25 05:40:14;;;;;;;12.63;9.88;;;18.50;99.90;;;;;;4999332;28;20495;-69
2022/06/25 05:42:40;;;;;;;11.27;9.65;;;18.60;99.90;;;;;;4994341;28;20497;-69
2022/06/25 05:45:06;;;;;;;11.77;9.70;;;18.60;99.90;;;;;;4977778;28;20084;-69
2022/06/25 05:47:32;;;;;;;11.63;9.43;;;18.70;99.90;;;;;;4976120;28;20521;-68
2022/06/25 05:49:57;;;;;;;12.77;9.57;;;18.70;99.90;;;;;;4960290;28;20046;-69
2022/06/25 05:52:23;;;;;;;11.32;9.80;;;18.80;99.90;;;;;;5002164;23;20100;-66
2022/06/25 05:54:49;;;;;;;10.10;9.07;;;18.90;99.90;;;;;;4987891;28;20054;-66
2022/06/25 05:57:15;;;;;;;13.25;8.75;;;18.90;99.90;;;;;;4988071;28;20031;-66
2022/06/25 05:59:41;;;;;;;12.63;8.02;;;19.00;99.90;;;;;;4982628;28;20045;-66
2022/06/25 06:02:07;;;;;;;11.93;8.55;;;19.10;99.90;;;;;;4974130;28;20038;-67
2022/06/25 06:04:33;;;;;;;9.95;8.85;;;19.10;99.90;;;;;;4974396;28;20066;-66
2022/06/25 06:07:02;;;;;;;13.82;8.10;;;19.20;99.90;;;;;;4975020;28;20057;-66
2022/06/25 06:09:28;;;;;;;10.80;8.10;;;19.10;99.90;;;;;;4958531;28;20051;-66
2022/06/25 06:11:56;;;;;;;11.57;7.68;;;19.20;99.90;;;;;;4971856;28;20053;-66
2022/06/25 06:14:22;;;;;;;21.08;7.35;;;19.20;99.90;;;;;;4969151;28;20038;-66
2022/06/25 06:16:48;;;;;;;13.63;7.90;;;19.30;99.90;;;;;;4959936;28;20089;-68
2022/06/25 06:19:14;;;;;;;11.48;7.68;;;19.30;99.90;;;;;;4962766;28;20035;-68
2022/06/25 06:21:40;;;;;;;8.70;7.03;;;19.40;99.90;;;;;;4967576;28;20550;-68
2022/06/25 06:24:06;;;;;;;9.48;7.40;;;19.40;99.90;;;;;;4964846;28;20130;-67
2022/06/25 06:26:33;;;;;;;10.13;7.20;;;19.50;99.90;;;;;;4968090;28;20097;-67
2022/06/25 06:28:59;;;;;;;10.32;7.32;;;19.60;99.90;;;;;;4969119;28;20066;-67
2022/06/25 06:31:24;;;;;;;9.20;6.53;;;19.70;99.90;;;;;;4965324;28;20455;-67
2022/06/25 06:33:50;;;;;;;8.15;7.15;;;19.80;99.90;;;;;;4960673;28;20089;-68
2022/06/25 06:36:15;;;;;;;10.38;6.35;;;19.80;99.90;;;;;;4968974;28;20039;-67
2022/06/25 06:38:41;;;;;;;9.55;6.43;;;19.80;99.90;;;;;;4964130;28;20835;-69
2022/06/25 06:41:07;;;;;;;9.10;5.78;;;19.90;99.90;;;;;;4961971;28;20045;-69
2022/06/25 06:43:32;;;;;;;9.05;6.30;;;19.90;99.90;;;;;;4962001;28;20132;-68
2022/06/25 06:45:58;;;;;;;9.68;6.22;;;20.10;99.90;;;;;;4969107;28;20045;-68
2022/06/25 06:48:24;;;;;;;8.32;5.60;;;20.10;99.90;;;;;;4958273;28;20032;-70
2022/06/25 06:50:50;;;;;;;9.05;5.70;;;20.20;99.90;;;;;;4965162;28;20062;-70
2022/06/25 06:53:16;;;;;;;8.63;5.20;;;20.30;99.90;;;;;;4955487;28;1075659;-70
2022/06/25 06:55:41;;;;;;;8.30;5.38;;;20.40;99.90;;;;;;5008618;28;20104;-69
2022/06/25 06:58:07;;;;;;;6.47;5.18;;;20.50;99.90;;;;;;4999254;28;20038;-67
2022/06/25 07:00:33;;;;;;;9.57;5.63;;;20.50;99.90;;;;;;4966861;28;20469;-68
2022/06/25 07:02:58;;;;;;;8.82;4.88;;;20.60;99.90;;;;;;5008193;28;20026;-67
2022/06/25 07:05:24;;;;;;;11.98;5.82;;;20.60;99.90;;;;;;4985455;28;20458;-69
2022/06/25 07:07:49;;;;;;;6.38;4.55;;;20.60;99.90;;;;;;4995050;28;20468;-69
2022/06/25 07:10:16;;;;;;;6.07;4.72;;;20.70;99.90;;;;;;4990287;28;20050;-68
2022/06/25 07:12:41;;;;;;;6.68;4.70;;;20.70;99.90;;;;;;4972288;28;20043;-69
2022/06/25 07:15:08;;;;;;;6.40;4.50;;;20.70;99.90;;;;;;4991083;28;20056;-69
2022/06/25 07:17:33;;;;;;;9.63;4.57;;;20.80;99.90;;;;;;4979412;28;20045;-69
2022/06/25 07:19:59;;;;;;;7.10;4.60;;;20.90;99.90;;;;;;4990210;28;20037;-69
2022/06/25 07:22:25;;;;;;;5.60;4.35;;;20.90;99.90;;;;;;4993207;28;20034;-69
2022/06/25 07:24:53;;;;;;;5.80;4.45;;;20.90;99.90;;;;;;4974420;28;20040;-70
2022/06/25 07:27:19;;;;;;;5.93;4.35;;;20.90;99.90;;;;;;4988553;28;20126;-69
2022/06/25 07:29:45;;;;;;;6.22;4.50;;;21.00;99.90;;;;;;4950573;28;20055;-70
2022/06/25 07:32:10;;;;;;;6.32;4.70;;;21.00;99.90;;;;;;4981177;28;20034;-70
2022/06/25 07:34:37;;;;;;;6.63;4.38;;;21.10;99.90;;;;;;5003402;28;20046;-69
2022/06/25 07:37:04;;;;;;;7.43;4.90;;;21.20;99.90;;;;;;5002946;28;20038;-69
2022/06/25 07:39:29;;;;;;;10.68;5.13;;;21.20;99.90;;;;;;4991721;28;20054;-69
2022/06/25 07:41:55;;;;;;;6.15;4.43;;;21.30;99.90;;;;;;5009990;28;20038;-70
2022/06/25 07:44:21;;;;;;;5.60;4.80;;;21.30;99.90;;;;;;4993366;28;20451;-70
2022/06/25 07:46:47;;;;;;;6.05;4.50;;;21.40;99.90;;;;;;5007675;28;20034;-70
2022/06/25 07:49:13;;;;;;;7.47;4.90;;;21.40;99.90;;;;;;4968272;28;20041;-70
2022/06/25 07:51:59;;;;;;;6.70;4.97;;;21.60;99.90;;;;;;4981015;28;20524;-71
2022/06/25 07:54:27;;;;;;;9.52;4.95;;;21.60;99.90;;;;;;4983260;28;20405;-70
2022/06/25 07:56:53;;;;;;;7.45;4.97;;;21.50;99.90;;;;;;4979612;28;20512;-69
2022/06/25 07:59:19;;;;;;;12.70;4.70;;;21.60;99.90;;;;;;5010326;28;20030;-68
2022/06/25 08:01:45;;;;;;;5.22;3.58;;;21.80;99.90;;;;;;5010147;28;20038;-70
2022/06/25 08:04:10;;;;;;;7.03;3.35;;;21.70;99.90;;;;;;4978457;28;20045;-69
2022/06/25 08:06:38;;;;;;;5.00;3.53;;;21.80;99.90;;;;;;4972502;28;20050;-69
2022/06/25 08:09:07;;;;;;;9.55;3.85;;;21.70;99.90;;;;;;4983001;28;20065;-69
2022/06/25 08:11:33;;;;;;;4.25;3.53;;;21.70;99.90;;;;;;4990352;28;20073;-69
2022/06/25 08:13:59;;;;;;;4.88;3.60;;;21.70;99.90;;;;;;4993730;28;20069;-69
2022/06/25 08:16:27;;;;;;;7.70;4.60;;;21.70;99.90;;;;;;5008238;28;20030;-69
2022/06/25 08:18:54;;;;;;;7.90;3.97;;;21.80;99.90;;;;;;4982317;28;20557;-69
2022/06/25 08:21:19;;;;;;;7.72;3.70;;;21.90;99.90;;;;;;4979089;28;20081;-68
2022/06/25 08:23:46;;;;;;;5.80;4.00;;;21.90;99.90;;;;;;4993240;28;20096;-69
2022/06/25 08:26:11;;;;;;;7.05;4.03;;;22.00;99.90;;;;;;4976042;28;20037;-69
2022/06/25 08:28:37;;;;;;;6.93;3.60;;;22.20;99.90;;;;;;4990777;28;20038;-68
2022/06/25 08:31:04;;;;;;;4.10;3.70;;;22.40;99.90;;;;;;4986230;28;20490;-68
2022/06/25 08:33:29;;;;;;;5.43;3.92;;;22.30;99.90;;;;;;5010281;28;20150;-69
2022/06/25 08:35:55;;;;;;;8.75;4.32;;;22.30;99.90;;;;;;4998643;28;20487;-69
2022/06/25 08:38:21;;;;;;;5.45;3.92;;;22.50;99.90;;;;;;5001346;28;20062;-69
2022/06/25 08:40:47;;;;;;;8.70;4.15;;;22.60;99.90;;;;;;4992146;28;20501;-69
2022/06/25 08:43:12;;;;;;;6.55;3.60;;;22.60;99.90;;;;;;5013135;28;20375;-68
2022/06/25 08:45:38;;;;;;;7.57;3.35;;;22.80;99.90;;;;;;4986471;28;20043;-69
2022/06/25 08:48:10;;;;;;;8.82;3.80;;;22.80;99.90;;;;;;5002518;28;20092;-69
2022/06/25 08:50:36;;;;;;;7.18;3.92;;;22.90;99.90;;;;;;4976575;28;20097;-69
2022/06/25 08:53:02;;;;;;;6.50;4.40;;;23.10;99.90;;;;;;4991151;28;20043;-69
2022/06/25 08:55:33;;;;;;;6.97;4.28;;;23.00;99.90;;;;;;4993604;28;20039;-69
2022/06/25 08:58:00;;;;;;;6.93;4.30;;;22.60;99.90;;;;;;4986761;28;20143;-69
2022/06/25 09:00:28;;;;;;;8.82;4.03;;;22.40;99.90;;;;;;4982062;28;20596;-66
2022/06/25 09:02:54;;;;;;;6.75;4.68;;;22.30;99.90;;;;;;4991644;28;20069;-68
2022/06/25 09:05:33;;;;;;;11.30;4.53;;;22.20;99.90;;;;;;4980179;28;20046;-68
2022/06/25 09:08:01;;;;;;;7.65;4.90;;;22.20;99.90;;;;;;4985351;28;20042;-69
2022/06/25 09:10:28;;;;;;;6.13;4.32;;;22.20;99.90;;;;;;4992427;28;20058;-69
2022/06/25 09:12:56;;;;;;;8.07;4.47;;;22.20;99.90;;;;;;4985953;28;20117;-69
2022/06/25 09:15:31;;;;;;;9.05;4.85;;;22.30;99.90;;;;;;4993265;28;20035;-69
2022/06/25 09:18:04;;;;;;;6.90;5.00;;;22.40;99.90;;;;;;4972506;28;20089;-70
2022/06/25 09:20:31;;;;;;;7.00;4.72;;;22.40;99.90;;;;;;4986080;28;20049;-70
2022/06/25 09:23:00;;;;;;;11.90;4.68;;;22.50;99.90;;;;;;4993426;28;20050;-69
2022/06/25 09:25:30;;;;;;;7.72;4.70;;;22.50;99.90;;;;;;4991884;28;20134;-69
2022/06/25 09:27:57;;;;;;;5.82;4.78;;;22.40;99.90;;;;;;4978144;28;20057;-69
2022/06/25 09:30:29;;;;;;;8.50;5.10;;;22.40;99.90;;;;;;4987721;28;20039;-70
2022/06/25 09:33:02;;;;;;;8.95;4.35;;;22.60;99.90;;;;;;4985800;28;20533;-69
2022/06/25 09:35:35;;;;;;;5.68;4.40;;;22.60;99.90;;;;;;4985765;28;20057;-69
2022/06/25 09:38:19;;;;;;;6.30;4.70;;;22.80;99.90;;;;;;4991460;28;20038;-68
2022/06/25 09:40:56;;;;;;;8.77;4.30;;;23.00;99.90;;;;;;5009258;28;20042;-68
2022/06/25 09:43:47;;;;;;;7.00;4.30;;;23.20;99.90;;;;;;5011491;28;20053;-68
2022/06/25 09:46:13;;;;;;;12.38;4.60;;;23.20;99.90;;;;;;4974758;28;20042;-68
2022/06/25 09:48:41;;;;;;;8.52;4.05;;;23.20;99.90;;;;;;4977721;28;20090;-68
2022/06/25 09:51:10;;;;;;;6.28;3.70;;;23.40;99.90;;;;;;4980634;28;20053;-68
2022/06/25 09:53:47;;;;;;;5.22;3.20;;;23.60;99.90;;;;;;4996753;28;20053;-68
2022/06/25 09:56:23;;;;;;;7.68;2.88;;;23.80;99.90;;;;;;5012231;28;20040;-68
2022/06/25 09:58:50;;;;;;;6.30;3.40;;;23.80;99.90;;;;;;4994967;28;20037;-68
2022/06/25 10:01:18;;;;;;;6.18;2.95;;;23.90;99.90;;;;;;4995801;28;20034;-67
2022/06/25 10:03:46;;;;;;;6.78;2.80;;;24.30;99.90;;;;;;5006213;28;20401;-67
2022/06/25 10:06:17;;;;;;;8.23;2.70;;;24.70;99.90;;;;;;5001687;28;20498;-67
2022/06/25 10:08:46;;;;;;;;;;;24.60;99.90;;;;;;4985216;28;20141;-68
2022/06/25 10:11:12;;;;;;;5.25;2.83;;;24.80;99.90;;;;;;4992731;28;19921;-67
2022/06/25 10:13:38;;;;;;;7.47;2.75;;;24.80;99.90;;;;;;5005547;28;20045;-68
2022/06/25 10:16:04;;;;;;;10.85;2.72;;;24.60;99.90;;;;;;5008239;28;20038;-71
2022/06/25 10:18:31;;;;;;;7.28;2.58;;;25.00;99.90;;;;;;4989872;28;20038;-71
2022/06/25 10:20:57;;;;;;;5.20;2.60;;;25.30;99.90;;;;;;4989302;28;20033;-70
2022/06/25 10:23:25;;;;;;;3.92;2.70;;;25.60;99.90;;;;;;4984917;28;20044;-70
2022/06/25 10:25:51;;;;;;;5.07;2.60;;;25.60;99.90;;;;;;4986641;28;20121;-70
2022/06/25 10:28:25;;;;;;;4.95;2.35;;;25.60;99.90;;;;;;5003265;28;20121;-71
2022/06/25 10:30:52;;;;;;;10.40;2.72;;;25.60;99.60;;;;;;4959560;28;20453;-70
2022/06/25 10:33:23;;;;;;;4.47;2.50;;;25.60;99.90;;;;;;4972072;28;20034;-71
2022/06/25 10:35:51;;;;;;;5.72;2.90;;;25.70;99.90;;;;;;4985464;28;20049;-71
2022/06/25 10:38:19;;;;;;;5.18;2.70;;;25.60;99.90;;;;;;4973184;28;20049;-71
2022/06/25 10:40:59;;;;;;;4.85;2.50;;;25.40;99.90;;;;;;4993247;28;20038;-71
2022/06/25 10:43:39;;;;;;;5.67;2.80;;;25.40;99.70;;;;;;4994933;28;20049;-71
2022/06/25 10:46:25;;;;;;;7.07;2.90;;;25.70;99.90;;;;;;4974473;28;20833;-71
2022/06/25 10:48:57;;;;;;;4.40;2.78;;;26.00;99.90;;;;;;4970547;28;20561;-71
2022/06/25 10:51:35;;;;;;;7.22;2.83;;;25.80;99.90;;;;;;4978996;28;20101;-71
2022/06/25 10:54:02;;;;;;;4.68;2.90;;;26.00;98.90;;;;;;4977795;28;20673;-71
2022/06/25 10:56:44;;;;;;;9.57;3.28;;;26.10;99.90;;;;;;4977395;28;20045;-71
2022/06/25 10:59:10;;;;;;;5.57;2.60;;;26.50;99.90;;;;;;4987801;28;20128;-71
2022/06/25 11:01:35;;;;;;;4.38;2.90;;;26.50;99.90;;;;;;4988712;28;20526;-72
2022/06/25 11:04:03;;;;;;;4.22;2.47;;;26.00;99.90;;;;;;4973910;28;20042;-71
2022/06/25 11:06:34;;;;;;;4.88;2.85;;;25.40;99.20;;;;;;4981721;28;20050;-72
2022/06/25 11:09:08;;;;;;;4.22;2.65;;;25.30;99.90;;;;;;4987889;28;20042;-65
2022/06/25 11:11:34;;;;;;;4.82;2.65;;;25.60;99.90;;;;;;4990860;28;20053;-69
2022/06/25 11:14:02;;;;;;;5.55;2.95;;;25.70;99.90;;;;;;4982070;28;20558;-69
2022/06/25 11:16:28;;;;;;;5.30;2.63;;;25.70;99.90;;;;;;4977446;28;20414;-69
2022/06/25 11:18:56;;;;;;;3.67;2.53;;;25.80;99.90;;;;;;4989927;28;20042;-69
2022/06/25 11:21:34;;;;;;;6.75;2.65;;;25.70;99.90;;;;;;4990027;28;20054;-70
2022/06/25 11:24:14;;;;;;;3.95;2.22;;;26.20;99.90;;;;;;4977562;28;20034;-70
2022/06/25 11:29:33;;;;;;;7.97;2.90;;;26.70;99.00;;;;;;4991517;28;20125;-69
2022/06/25 11:31:59;;;;;;;3.75;2.22;;;26.90;99.80;;;;;;4979222;28;20042;-70
2022/06/25 11:34:26;;;;;;;3.85;2.03;;;26.80;99.20;;;;;;4982850;28;20086;-69
2022/06/25 11:37:04;;;;;;;5.28;2.05;;;26.10;97.00;;;;;;4989809;28;20407;-70
2022/06/25 11:39:31;;;;;;;2.75;1.88;;;25.90;96.60;;;;;;4997412;28;20038;-69
2022/06/25 11:41:57;;;;;;;4.63;2.20;;;26.00;97.30;;;;;;4982714;28;20398;-72
2022/06/25 11:44:23;;;;;;;4.00;2.10;;;26.20;98.80;;;;;;4983670;28;20521;-72
2022/06/25 11:46:49;;;;;;;3.90;2.10;;;26.60;99.10;;;;;;4986955;28;20038;-71
2022/06/25 11:49:16;;;;;;;3.38;1.98;;;26.60;98.00;;;;;;4979839;28;20470;-72
2022/06/25 11:51:55;;;;;;;3.00;2.15;;;26.40;98.00;;;;;;4987760;28;20657;-69
2022/06/25 11:54:24;;;;;;;3.08;2.30;;;26.40;97.80;;;;;;5638205;23;20042;-71
2022/06/25 11:56:51;;;;;;;4.35;2.05;;;25.80;97.50;;;;;;4950818;28;20046;-69
2022/06/25 11:59:29;;;;;;;3.35;2.30;;;25.30;97.70;;;;;;4964733;28;20039;-69
2022/06/25 12:01:55;;;;;;;6.70;2.17;;;24.80;96.40;;;;;;4973125;28;20031;-69
2022/06/25 12:04:21;;;;;;;3.28;2.40;;;24.50;96.70;;;;;;4947678;28;20410;-70
2022/06/25 12:06:48;;;;;;;3.15;2.28;;;24.20;99.00;;;;;;4940393;28;20043;-70
2022/06/25 12:09:16;;;;;;;4.03;2.60;;;24.10;99.40;;;;;;4934483;29;20039;-69
2022/06/25 12:11:51;;;;;;;5.68;2.47;;;23.90;99.70;;;;;;4936155;28;20411;-69
2022/06/25 12:14:18;;;;;;;4.70;2.70;;;23.90;99.70;;;;;;4941927;28;20075;-69
2022/06/25 12:16:47;;;;;;;4.65;2.67;;;23.80;99.90;;;;;;4952733;28;20055;-69
2022/06/25 12:19:12;;;;;;;4.60;2.50;;;23.90;99.90;;;;;;4955957;29;20126;-69
2022/06/25 12:21:38;;;;;;;3.75;2.22;;;24.00;99.90;;;;;;4963623;28;20113;-69
2022/06/25 12:24:06;;;;;;;4.15;2.20;;;24.10;99.90;;;;;;4952290;28;20390;-69
2022/06/25 12:26:35;;;;;;;4.53;2.30;;;24.10;99.90;;;;;;4957278;28;20043;-69
2022/06/25 12:29:11;;;;;;;4.47;2.42;;;24.20;99.90;;;;;;4938451;29;20051;-69
2022/06/25 12:32:00;;;;;;;6.18;2.35;;;24.20;99.90;;;;;;4950934;28;20074;-70
2022/06/25 12:34:27;;;;;;;4.90;2.25;;;24.20;99.90;;;;;;4956553;28;20070;-69
2022/06/25 12:36:54;;;;;;;10.88;2.20;;;24.10;99.90;;;;;;4955611;28;20051;-69
2022/06/25 12:39:38;;;;;;;3.15;2.30;;;24.10;99.90;;;;;;4952042;28;20037;-70
2022/06/25 12:42:09;;;;;;;6.55;2.30;;;24.00;99.90;;;;;;4942764;29;20118;-69
2022/06/25 12:44:41;;;;;;;4.55;2.30;;;24.00;99.90;;;;;;4936365;29;20502;-69
2022/06/25 12:47:15;;;;;;;3.22;2.13;;;23.90;99.90;;;;;;4956355;28;20043;-69
2022/06/25 12:49:55;;;;;;;5.75;2.30;;;23.80;99.90;;;;;;4938739;28;20058;-69
2022/06/25 12:52:26;;;;;;;5.32;2.40;;;23.60;99.90;;;;;;4938330;29;20098;-69
2022/06/25 12:54:57;;;;;;;3.72;2.30;;;23.40;99.90;;;;;;4944380;28;20218;-70
2022/06/25 12:57:27;;;;;;;2.42;2.20;;;23.40;99.90;;;;;;4950252;28;20073;-69
2022/06/25 12:59:54;;;;;;;4.88;2.33;;;23.30;99.90;;;;;;4950501;28;20121;-69
2022/06/25 13:02:21;;;;;;;4.80;2.40;;;23.40;99.90;;;;;;4951470;28;20035;-69
2022/06/25 13:04:47;;;;;;;6.28;2.50;;;23.50;99.90;;;;;;4950508;28;20499;-70
2022/06/25 13:07:14;;;;;;;4.97;2.85;;;23.60;99.90;;;;;;4941193;28;20403;-70
2022/06/25 13:09:41;;;;;;;5.05;2.75;;;23.70;99.90;;;;;;4937194;29;20110;-70
2022/06/25 13:12:08;;;;;;;5.35;2.97;;;23.70;99.90;;;;;;4962183;28;20047;-70
2022/06/25 13:14:34;;;;;;;4.10;2.92;;;23.80;99.90;;;;;;4953440;28;20047;-70
2022/06/25 13:17:01;;;;;;;6.60;2.90;;;23.80;99.90;;;;;;4961744;28;20039;-70
2022/06/25 13:19:27;;;;;;;5.95;2.90;;;23.70;99.90;;;;;;4954868;29;20075;-72
2022/06/25 13:21:53;;;;;;;8.00;3.30;;;23.70;99.90;;;;;;4951484;28;20058;-71
2022/06/25 13:24:18;;;;;;;5.93;2.83;;;23.70;99.90;;;;;;4945373;28;20507;-71
2022/06/25 13:26:44;;;;;;;3.88;3.00;;;23.70;99.90;;;;;;4969550;28;20580;-73
2022/06/25 13:29:10;;;;;;;6.07;3.13;;;23.80;99.90;;;;;;4946181;28;20039;-72
2022/06/25 13:31:36;;;;;;;4.53;2.80;;;23.80;99.90;;;;;;4943166;28;20051;-73
2022/06/25 13:34:02;;;;;;;4.50;3.20;;;24.10;99.90;;;;;;4954412;28;20506;-73
2022/06/25 13:36:28;;;;;;;3.45;2.55;;;24.40;99.90;;;;;;4937678;29;20035;-74
2022/06/25 13:38:55;;;;;;;4.90;2.60;;;24.60;99.90;;;;;;4937525;28;20082;-74
2022/06/25 13:41:21;;;;;;;4.20;2.65;;;25.20;99.90;;;;;;4967958;28;20066;-74
2022/06/25 13:43:49;;;;;;;4.65;2.80;;;25.90;99.90;;;;;;4946823;28;20049;-74
2022/06/25 13:46:15;;;;;;;3.60;2.13;;;25.90;99.90;;;;;;4977102;28;20516;-73
2022/06/25 13:48:40;;;;;;;8.43;2.35;;;25.80;99.40;;;;;;4950286;28;20043;-73
2022/06/25 13:51:06;;;;;;;3.05;2.10;;;25.90;99.40;;;;;;4957915;28;20487;-73
2022/06/25 13:53:33;;;;;;;3.65;2.08;;;25.80;98.80;;;;;;4968146;28;20122;-74
2022/06/25 13:55:59;;;;;;;3.03;1.90;;;26.10;99.70;;;;;;4943362;29;20051;-73
2022/06/25 13:58:25;;;;;;;3.10;1.80;;;26.70;98.70;;;;;;4951071;28;20097;-74
2022/06/25 14:00:51;;;;;;;2.75;1.85;;;27.10;98.40;;;;;;4959764;28;20038;-74
2022/06/25 14:03:17;;;;;;;2.30;1.65;;;27.40;97.20;;;;;;4957458;28;20038;-74
2022/06/25 14:05:42;;;;;;;4.47;1.83;;;27.20;97.20;;;;;;4947050;28;20043;-74
2022/06/25 14:08:08;;;;;;;2.42;1.90;;;27.00;97.00;;;;;;4936716;28;20039;-74
2022/06/25 14:10:34;;;;;;;2.13;1.73;;;27.20;97.10;;;;;;4952143;28;20046;-74
2022/06/25 14:12:59;;;;;;;3.50;1.98;;;27.60;96.70;;;;;;4955911;28;20486;-74
2022/06/25 14:15:25;;;;;;;4.53;1.70;;;28.10;96.90;;;;;;4946086;28;20072;-75
2022/06/25 14:17:51;;;;;;;4.68;1.80;;;27.80;95.60;;;;;;4967974;28;20118;-74
2022/06/25 14:20:16;;;;;;;2.10;1.52;;;28.30;95.80;;;;;;4967135;28;20042;-74
2022/06/25 14:22:42;;;;;;;3.70;1.35;;;28.60;95.00;;;;;;4951042;28;20043;-75
2022/06/25 14:25:57;;;;;;;3.75;1.40;;;28.90;95.40;;;;;;4972372;28;20094;-73
2022/06/25 14:28:24;;;;;;;3.30;1.20;;;28.80;92.10;;;;;;4955861;28;20034;-73
2022/06/25 14:30:50;;;;;;;2.30;1.30;;;29.30;93.60;;;;;;4942362;28;20042;-74
2022/06/25 14:33:16;;;;;;;2.92;1.55;;;29.30;93.60;;;;;;4935862;29;20047;-71
2022/06/25 14:42:20;;;;;;;3.35;1.50;;;29.30;92.60;;;;;;4960256;28;20042;-75